Time;durP1;ratioP1;P1;durP2;ratioP2;P2;SDS_P1;SDS_P2;PMS_P1;PMS_P2;Temp;Humidity;BMP_temperature;BMP_pressure;BME280_temperature;BME280_humidity;BME280_pressure;Samples;Min_cycle;Max_cycle;Signal;HPM_P1;HPM_P2
2023/02/26 00:00:24;;;;;;;7.80;4.80;;;;;;;0.38;87.84;97642.73;221095;1283;24237;-81
2023/02/26 00:05:25;;;;;;;7.10;5.20;;;;;;;0.36;87.84;97647.75;220979;1278;22655;-80
2023/02/26 00:10:28;;;;;;;5.50;4.80;;;;;;;0.32;87.55;97655.19;220785;1282;23938;-79
2023/02/26 00:15:30;;;;;;;8.60;4.90;;;;;;;0.29;87.59;97661.89;220750;1281;22643;-80
2023/02/26 00:20:35;;;;;;;6.10;5.40;;;;;;;0.28;87.62;97667.61;220881;1283;22699;-80
2023/02/26 00:25:37;;;;;;;6.10;3.80;;;;;;;0.27;87.75;97679.16;220992;1280;22565;-79
2023/02/26 00:30:40;;;;;;;5.80;4.40;;;;;;;0.25;87.46;97682.23;220912;1275;25584;-81
2023/02/26 00:35:43;;;;;;;9.40;3.80;;;;;;;0.24;87.59;97687.73;220933;1282;22535;-79
2023/02/26 00:40:52;;;;;;;5.40;4.10;;;;;;;0.21;87.29;97691.83;221029;1278;22615;-79
2023/02/26 00:46:02;;;;;;;7.50;4.00;;;;;;;0.19;87.21;97699.48;221055;1282;22543;-80
2023/02/26 00:51:43;;;;;;;6.10;4.50;;;;;;;0.17;87.38;97700.02;221081;1282;24364;-79
2023/02/26 00:56:48;;;;;;;9.30;5.30;;;;;;;0.14;87.49;97700.02;221056;1278;24385;-80
2023/02/26 01:01:52;;;;;;;7.70;5.30;;;;;;;0.12;87.52;97705.91;220992;1283;22898;-80
2023/02/26 01:06:56;;;;;;;6.60;5.10;;;;;;;0.10;87.35;97707.29;220860;1281;22538;-79
2023/02/26 01:12:04;;;;;;;9.20;5.50;;;;;;;0.09;87.38;97704.23;221072;1282;22621;-79
2023/02/26 01:17:24;;;;;;;7.90;5.50;;;;;;;0.11;87.40;97703.63;221076;1283;22611;-80
2023/02/26 01:22:51;;;;;;;6.10;4.60;;;;;;;0.10;87.59;97704.72;221078;1281;22559;-79
2023/02/26 01:27:56;;;;;;;7.20;4.80;;;;;;;0.09;87.32;97693.93;220922;1281;25432;-79
2023/02/26 01:33:12;;;;;;;7.10;4.70;;;;;;;0.07;87.51;97700.14;221093;1275;22624;-79
2023/02/26 01:38:51;;;;;;;6.90;4.40;;;;;;;0.05;87.21;97716.48;221085;1282;25661;-81
2023/02/26 01:44:23;;;;;;;6.70;4.60;;;;;;;0.00;87.18;97726.23;221010;1263;22568;-80
2023/02/26 01:49:27;;;;;;;8.50;5.20;;;;;;;-0.02;87.35;97731.42;220931;1281;24217;-80
2023/02/26 01:54:38;;;;;;;6.60;4.70;;;;;;;-0.02;87.30;97740.45;220982;1281;24269;-80
2023/02/26 01:59:44;;;;;;;5.60;4.50;;;;;;;0.00;87.45;97744.05;221010;1275;22692;-80
2023/02/26 02:04:48;;;;;;;6.60;5.30;;;;;;;-0.01;87.68;97756.63;221048;1278;24200;-80
2023/02/26 02:09:50;;;;;;;7.60;5.40;;;;;;;-0.03;87.67;97762.56;221089;1283;22695;-81
2023/02/26 02:15:36;;;;;;;8.00;5.70;;;;;;;-0.06;87.71;97772.82;221057;1283;22533;-81
2023/02/26 02:20:50;;;;;;;8.40;5.60;;;;;;;-0.08;87.72;97777.75;220983;1282;26628;-82
2023/02/26 02:26:19;;;;;;;7.50;6.10;;;;;;;-0.09;87.26;97790.48;220959;1282;25231;-81
2023/02/26 02:31:30;;;;;;;8.10;6.00;;;;;;;-0.10;87.75;97799.73;220968;1282;24306;-80
2023/02/26 02:36:46;;;;;;;;;;;;;;;-0.13;87.49;97807.23;220959;1279;22540;-81
2023/02/26 02:41:58;;;;;;;8.70;6.20;;;;;;;-0.15;87.58;97807.50;221071;1281;22562;-80
2023/02/26 02:47:05;;;;;;;9.20;7.00;;;;;;;-0.15;87.46;97809.24;220812;1283;22631;-81
2023/02/26 02:52:27;;;;;;;8.10;5.90;;;;;;;-0.15;87.72;97804.05;221066;1274;22551;-80
2023/02/26 02:57:41;;;;;;;7.20;5.50;;;;;;;-0.17;87.51;97812.57;221313;1283;22850;-81
2023/02/26 03:03:26;;;;;;;6.20;4.80;;;;;;;-0.20;87.19;97817.17;221447;1281;22723;-80
2023/02/26 03:08:53;;;;;;;6.00;4.60;;;;;;;-0.25;86.54;97821.60;220777;1283;24248;-80
2023/02/26 03:13:56;;;;;;;6.90;5.30;;;;;;;-0.31;86.47;97826.37;221198;1283;22620;-80
2023/02/26 03:19:05;;;;;;;8.10;5.70;;;;;;;-0.36;86.34;97832.25;221335;1281;22665;-82
2023/02/26 03:24:36;;;;;;;6.40;4.40;;;;;;;-0.38;86.68;97844.88;221368;1282;24232;-81
2023/02/26 03:30:05;;;;;;;6.40;4.80;;;;;;;-0.38;86.41;97858.73;221139;1283;22665;-81
2023/02/26 03:35:15;;;;;;;7.20;5.50;;;;;;;-0.36;86.44;97865.86;221218;1283;24333;-80
2023/02/26 03:40:29;;;;;;;6.30;5.40;;;;;;;-0.34;86.44;97881.95;221483;1283;24237;-81
2023/02/26 03:45:37;;;;;;;8.60;5.30;;;;;;;-0.32;86.39;97893.36;221479;1281;23252;-80
2023/02/26 03:50:45;;;;;;;9.10;5.50;;;;;;;-0.31;86.03;97897.56;221390;1283;25426;-80
2023/02/26 03:56:17;;;;;;;7.80;5.10;;;;;;;-0.30;86.23;97904.25;221371;1272;24084;-80
2023/02/26 04:01:53;;;;;;;14.20;5.30;;;;;;;-0.32;85.96;97911.85;220915;1283;24289;-81
2023/02/26 04:06:57;;;;;;;6.70;5.10;;;;;;;-0.35;86.08;97919.88;221040;1283;23100;-81
2023/02/26 04:12:00;;;;;;;7.40;4.70;;;;;;;-0.41;85.96;97924.63;221095;1279;26700;-80
2023/02/26 04:17:04;;;;;;;7.90;5.20;;;;;;;-0.53;85.88;97933.87;221291;1281;25426;-80
2023/02/26 04:22:09;;;;;;;9.80;6.10;;;;;;;-0.67;85.95;97941.89;221316;1279;25422;-79
2023/02/26 04:27:12;;;;;;;9.50;5.70;;;;;;;-0.76;86.12;97947.04;221820;1283;22894;-80
2023/02/26 04:32:38;;;;;;;7.80;5.70;;;;;;;-0.83;86.08;97944.14;223568;1281;23061;-80
2023/02/26 04:37:42;;;;;;;9.40;5.60;;;;;;;-0.79;85.96;97954.54;224174;1275;23737;-79
2023/02/26 04:42:46;;;;;;;9.00;4.90;;;;;;;-0.72;85.86;97963.10;224202;1283;26210;-79
2023/02/26 04:47:58;;;;;;;7.00;4.70;;;;;;;-0.65;86.04;97972.85;224342;1283;24016;-80
2023/02/26 04:53:06;;;;;;;7.70;5.40;;;;;;;-0.60;86.19;97974.77;224155;1272;22669;-79
2023/02/26 04:58:10;;;;;;;6.50;4.90;;;;;;;-0.56;85.54;97975.65;224280;1279;22540;-80
2023/02/26 05:03:16;;;;;;;6.90;4.70;;;;;;;-0.54;85.58;97986.84;224116;1283;22657;-80
2023/02/26 05:08:19;;;;;;;7.00;4.30;;;;;;;-0.54;85.56;97999.48;224199;1281;25351;-79
2023/02/26 05:13:21;;;;;;;7.10;4.20;;;;;;;-0.55;85.39;98002.11;224134;1281;22576;-79
2023/02/26 05:18:26;;;;;;;6.60;4.60;;;;;;;-0.54;85.27;98006.75;224102;1283;23741;-79
2023/02/26 05:23:29;;;;;;;8.60;4.30;;;;;;;-0.54;85.22;98019.02;224280;1283;22559;-79
2023/02/26 05:28:35;;;;;;;6.00;4.50;;;;;;;-0.54;85.02;98028.89;223912;1283;23014;-79
2023/02/26 05:33:37;;;;;;;6.50;4.30;;;;;;;-0.53;85.20;98035.17;223886;1278;23202;-80
2023/02/26 05:38:42;;;;;;;6.40;4.80;;;;;;;-0.54;85.29;98044.95;223887;1283;22552;-80
2023/02/26 05:43:44;;;;;;;7.80;5.20;;;;;;;-0.54;85.07;98060.70;223738;1283;25336;-79
2023/02/26 05:48:51;;;;;;;7.20;5.20;;;;;;;-0.53;85.10;98078.27;223880;1276;22552;-80
2023/02/26 05:53:53;;;;;;;9.90;5.50;;;;;;;-0.51;85.13;98087.95;223452;1280;24183;-79
2023/02/26 05:58:56;;;;;;;7.30;5.30;;;;;;;-0.47;85.44;98098.50;223547;1283;22587;-81
2023/02/26 06:03:59;;;;;;;7.40;4.80;;;;;;;-0.44;85.23;98108.39;223632;1282;22591;-78
2023/02/26 06:09:05;;;;;;;8.30;4.90;;;;;;;-0.44;85.41;98113.55;223444;1283;22556;-78
2023/02/26 06:14:10;;;;;;;9.30;4.70;;;;;;;-0.44;85.15;98125.40;223012;1282;22485;-79
2023/02/26 06:19:13;;;;;;;8.80;4.90;;;;;;;-0.43;85.32;98138.54;223080;1282;22537;-79
2023/02/26 06:24:17;;;;;;;7.30;5.40;;;;;;;-0.40;85.34;98141.74;223050;1281;23178;-80
2023/02/26 06:29:20;;;;;;;7.20;5.20;;;;;;;-0.37;85.05;98144.66;222700;1283;22561;-80
2023/02/26 06:34:22;;;;;;;6.40;5.20;;;;;;;-0.33;85.29;98156.63;222396;1281;22554;-80
2023/02/26 06:39:30;;;;;;;7.10;5.30;;;;;;;-0.28;85.50;98168.80;222142;1282;22725;-80
2023/02/26 06:44:34;;;;;;;9.20;5.80;;;;;;;-0.20;85.10;98173.63;221731;1281;22566;-80
2023/02/26 06:49:37;;;;;;;7.60;5.60;;;;;;;-0.14;85.36;98174.94;221764;1276;24382;-81
2023/02/26 06:54:42;;;;;;;10.10;5.90;;;;;;;-0.07;85.46;98178.61;221825;1278;25426;-80
2023/02/26 06:59:46;;;;;;;8.50;6.10;;;;;;;0.01;85.61;98178.63;221906;1279;22554;-79
2023/02/26 07:04:50;;;;;;;10.80;7.00;;;;;;;0.13;85.57;98197.99;221598;1282;22844;-79
2023/02/26 07:09:52;;;;;;;9.70;7.00;;;;;;;0.21;85.48;98199.16;221760;1283;22685;-80
2023/02/26 07:15:00;;;;;;;8.30;5.60;;;;;;;0.26;85.29;98201.47;221459;1282;25405;-80
2023/02/26 07:20:08;;;;;;;8.60;5.80;;;;;;;0.26;84.64;98210.63;221751;1283;22656;-79
2023/02/26 07:25:13;;;;;;;8.50;6.20;;;;;;;0.30;84.90;98214.91;221746;1281;23829;-80
2023/02/26 07:30:18;;;;;;;7.60;6.10;;;;;;;0.41;84.71;98221.11;221715;1281;22658;-80
2023/02/26 07:35:20;;;;;;;7.50;5.60;;;;;;;0.55;84.83;98228.48;221664;1279;22627;-80
2023/02/26 07:40:26;;;;;;;9.60;6.30;;;;;;;0.62;84.88;98234.43;221554;1283;23958;-81
2023/02/26 07:45:30;;;;;;;9.50;6.20;;;;;;;0.65;84.62;98242.43;221387;1283;22619;-80
2023/02/26 07:50:32;;;;;;;7.70;6.20;;;;;;;0.70;84.26;98243.90;221325;1281;24209;-81
2023/02/26 07:55:35;;;;;;;8.00;6.10;;;;;;;0.80;84.21;98239.20;221519;1283;25236;-79
2023/02/26 08:00:38;;;;;;;9.60;6.50;;;;;;;0.95;84.12;98251.66;221433;1282;22600;-79
2023/02/26 08:05:40;;;;;;;5.90;5.20;;;;;;;0.99;83.71;98266.90;221639;1281;25989;-80
2023/02/26 08:10:43;;;;;;;5.10;4.30;;;;;;;0.93;83.41;98268.27;221478;1282;22582;-79
2023/02/26 08:15:47;;;;;;;7.20;5.20;;;;;;;0.97;83.58;98280.23;221383;1282;22666;-80
2023/02/26 08:21:12;;;;;;;7.20;5.10;;;;;;;1.03;83.27;98278.48;221178;1283;22781;-79
2023/02/26 08:26:15;;;;;;;6.00;4.20;;;;;;;1.02;82.78;98284.00;221329;1283;22463;-80
2023/02/26 08:31:17;;;;;;;2.80;2.20;;;;;;;0.97;82.54;98286.85;221364;1283;24294;-81
2023/02/26 08:36:23;;;;;;;3.20;2.70;;;;;;;0.92;81.74;98292.98;221342;1276;22616;-80
2023/02/26 08:41:35;;;;;;;4.90;3.30;;;;;;;0.85;81.85;98301.47;221040;1279;22547;-80
2023/02/26 08:46:38;;;;;;;6.40;3.90;;;;;;;0.88;81.83;98307.59;221369;1280;22651;-80
2023/02/26 08:51:41;;;;;;;4.20;3.70;;;;;;;1.11;82.29;98312.26;220949;1279;25334;-79
2023/02/26 08:56:43;;;;;;;4.80;4.00;;;;;;;1.27;82.18;98314.61;221158;1277;22545;-80
2023/02/26 09:01:46;;;;;;;4.10;3.50;;;;;;;1.43;81.48;98314.20;221031;1282;22551;-80
2023/02/26 09:06:51;;;;;;;4.70;3.20;;;;;;;1.63;80.43;98314.33;221135;1277;22547;-78
2023/02/26 09:11:53;;;;;;;4.70;3.00;;;;;;;1.70;79.27;98310.23;221125;1282;22682;-80
2023/02/26 09:16:55;;;;;;;4.00;2.90;;;;;;;1.77;79.17;98318.79;221147;1277;25420;-80
2023/02/26 09:21:58;;;;;;;1.40;1.20;;;;;;;1.95;78.48;98327.52;221176;1281;25450;-79
2023/02/26 09:27:02;;;;;;;2.00;1.50;;;;;;;2.05;77.05;98340.98;221369;1283;22557;-78
2023/02/26 09:32:07;;;;;;;1.80;1.40;;;;;;;2.02;75.93;98348.15;220890;1282;25347;-79
2023/02/26 09:37:09;;;;;;;4.20;1.90;;;;;;;1.89;74.70;98352.80;221034;1283;22544;-78
2023/02/26 09:42:30;;;;;;;2.20;2.00;;;;;;;2.04;75.53;98349.23;220845;1282;23331;-80
2023/02/26 09:47:40;;;;;;;4.00;1.80;;;;;;;2.36;75.33;98362.47;220927;1280;24315;-79
2023/02/26 09:52:53;;;;;;;5.00;2.40;;;;;;;2.46;74.96;98376.44;220972;1277;23255;-80
2023/02/26 09:57:59;;;;;;;3.30;2.30;;;;;;;2.37;74.77;98389.35;220909;1280;23288;-79
2023/02/26 10:03:28;;;;;;;2.80;2.10;;;;;;;2.19;74.80;98390.16;220917;1283;24241;-80
2023/02/26 10:08:44;;;;;;;4.20;2.40;;;;;;;2.13;74.98;98397.02;220966;1273;22533;-80
2023/02/26 10:14:30;;;;;;;3.70;2.70;;;;;;;2.05;75.41;98411.15;220865;1277;22754;-78
2023/02/26 10:19:39;;;;;;;3.30;2.80;;;;;;;2.02;75.78;98416.08;220955;1283;24308;-80
2023/02/26 10:24:48;;;;;;;4.50;3.20;;;;;;;1.87;75.19;98434.33;221045;1279;22534;-79
2023/02/26 10:30:06;;;;;;;4.60;3.80;;;;;;;1.64;75.55;98450.14;221028;1280;22546;-81
2023/02/26 10:35:18;;;;;;;4.00;3.40;;;;;;;1.70;76.16;98448.27;221237;1276;22579;-79
2023/02/26 10:41:12;;;;;;;5.10;3.60;;;;;;;1.78;76.20;98456.73;221061;1280;22547;-81
2023/02/26 10:46:41;;;;;;;7.20;5.00;;;;;;;1.64;76.56;98473.41;221039;1282;22784;-80
2023/02/26 10:51:45;;;;;;;5.90;3.90;;;;;;;1.49;77.17;98486.80;220923;1276;25274;-78
2023/02/26 10:56:51;;;;;;;5.70;4.10;;;;;;;1.33;77.95;98489.95;220962;1283;25284;-79
2023/02/26 11:01:54;;;;;;;3.00;2.30;;;;;;;1.18;78.18;98501.86;221051;1280;25306;-82
2023/02/26 11:07:00;;;;;;;2.90;2.40;;;;;;;1.05;78.02;98507.20;221231;1275;22554;-80
2023/02/26 11:12:16;;;;;;;2.80;2.20;;;;;;;0.98;78.34;98504.66;220985;1282;143173;-80
2023/02/26 11:17:26;;;;;;;3.30;2.30;;;;;;;1.04;78.24;98503.49;221032;1278;25959;-81
2023/02/26 11:22:33;;;;;;;3.60;2.20;;;;;;;1.19;77.95;98508.27;221230;1274;24219;-81
2023/02/26 11:27:37;;;;;;;2.70;2.00;;;;;;;1.39;77.40;98517.16;221072;1260;24237;-80
2023/02/26 11:32:40;;;;;;;3.40;2.00;;;;;;;1.66;77.56;98520.45;221287;1282;23772;-80
2023/02/26 11:37:48;;;;;;;3.10;2.30;;;;;;;1.82;76.93;98520.79;221028;1281;22654;-81
2023/02/26 11:43:07;;;;;;;3.90;2.20;;;;;;;1.94;76.63;98527.32;221213;1276;22575;-80
2023/02/26 11:48:20;;;;;;;2.20;2.00;;;;;;;2.01;76.05;98524.89;221100;1283;24379;-80
2023/02/26 11:53:40;;;;;;;2.40;1.80;;;;;;;2.10;75.94;98531.91;221869;1282;22536;-80
2023/02/26 11:58:46;;;;;;;2.50;2.10;;;;;;;2.15;75.01;98534.21;221906;1282;22627;-81
2023/02/26 12:03:49;;;;;;;3.00;1.90;;;;;;;2.29;75.11;98537.92;222085;1278;25324;-81
2023/02/26 12:08:58;;;;;;;4.20;2.30;;;;;;;2.41;74.39;98541.52;222783;1282;26439;-80
2023/02/26 12:14:24;;;;;;;3.90;2.60;;;;;;;2.36;73.84;98557.50;223435;1279;22591;-81
2023/02/26 12:19:52;;;;;;;3.90;2.40;;;;;;;2.23;73.91;98559.77;223754;1283;22493;-80
2023/02/26 12:25:57;;;;;;;3.70;2.90;;;;;;;2.18;74.21;98570.65;223881;1275;22587;-80
2023/02/26 12:31:55;;;;;;;4.60;2.70;;;;;;;2.28;74.45;98580.81;223145;1284;23783;-80
2023/02/26 12:37:30;;;;;;;3.90;3.00;;;;;;;2.23;74.18;98590.00;223520;1282;22567;-79
2023/02/26 12:43:02;;;;;;;4.20;2.70;;;;;;;2.08;74.39;98597.02;223716;1282;22550;-79
2023/02/26 12:48:34;;;;;;;4.20;3.40;;;;;;;1.88;75.03;98605.83;223780;1279;22565;-80
2023/02/26 12:54:03;;;;;;;4.30;2.80;;;;;;;1.69;75.52;98607.19;223698;1281;22682;-82
2023/02/26 12:59:43;;;;;;;5.20;3.20;;;;;;;1.53;75.87;98610.16;222572;1282;22540;-81
2023/02/26 13:05:14;;;;;;;5.30;3.60;;;;;;;1.41;75.86;98616.80;222085;1282;22554;-82
2023/02/26 13:10:34;;;;;;;5.20;3.40;;;;;;;1.33;76.47;98620.27;222103;1277;23159;-80
2023/02/26 13:16:12;;;;;;;4.80;3.80;;;;;;;1.29;76.92;98623.36;223293;1283;24296;-80
2023/02/26 13:21:17;;;;;;;5.00;3.60;;;;;;;1.26;76.45;98624.04;222253;1283;25121;-80
2023/02/26 13:26:25;;;;;;;4.50;3.00;;;;;;;1.26;76.54;98621.27;222518;1282;22558;-80
2023/02/26 13:31:44;;;;;;;4.30;3.10;;;;;;;1.32;76.63;98633.86;224481;1283;25327;-80
2023/02/26 13:36:49;;;;;;;5.40;3.20;;;;;;;1.44;76.66;98650.05;224587;1282;22574;-81
2023/02/26 13:42:15;;;;;;;5.10;3.60;;;;;;;1.48;76.00;98662.92;224470;1276;22514;-81
2023/02/26 13:47:45;;;;;;;4.40;3.20;;;;;;;1.45;75.78;98680.36;223780;1280;22575;-79
2023/02/26 13:53:19;;;;;;;5.00;4.00;;;;;;;1.29;75.71;98686.19;223261;1282;22617;-80
2023/02/26 13:58:22;;;;;;;5.60;4.10;;;;;;;1.16;76.28;98686.84;222088;1273;23824;-79
2023/02/26 14:03:31;;;;;;;6.50;3.70;;;;;;;1.11;76.62;98682.39;221929;1283;22542;-78
2023/02/26 14:08:56;;;;;;;6.10;3.90;;;;;;;1.09;76.86;98691.39;221964;1281;22788;-79
2023/02/26 14:14:25;;;;;;;7.10;4.70;;;;;;;1.06;76.96;98695.26;221878;1277;25479;-81
2023/02/26 14:19:32;;;;;;;7.90;5.10;;;;;;;1.04;77.27;98697.66;221735;1280;24270;-79
2023/02/26 14:24:43;;;;;;;8.10;4.60;;;;;;;1.02;77.23;98700.09;221791;1283;25986;-80
2023/02/26 14:30:09;;;;;;;7.80;4.50;;;;;;;0.95;77.13;98705.19;222214;1272;23832;-80
2023/02/26 14:35:42;;;;;;;4.70;3.20;;;;;;;0.85;76.88;98714.45;221517;1280;22621;-79
2023/02/26 14:40:58;;;;;;;3.90;2.60;;;;;;;0.77;76.33;98716.27;221787;1282;22861;-79
2023/02/26 14:46:03;;;;;;;7.20;3.80;;;;;;;0.68;76.25;98721.57;221526;1282;23933;-79
2023/02/26 14:51:53;;;;;;;7.40;3.70;;;;;;;0.61;76.21;98731.86;221590;1283;22537;-79
2023/02/26 14:57:27;;;;;;;5.60;3.60;;;;;;;0.54;76.25;98733.67;221114;1267;25456;-80
2023/02/26 15:02:42;;;;;;;6.60;3.60;;;;;;;0.52;76.57;98748.84;221198;1279;24389;-80
2023/02/26 15:08:15;;;;;;;5.60;3.90;;;;;;;0.50;76.37;98763.38;221028;1275;25311;-79
2023/02/26 15:13:43;;;;;;;6.10;3.50;;;;;;;0.49;76.52;98767.71;221060;1283;22565;-82
2023/02/26 15:19:09;;;;;;;5.20;4.00;;;;;;;0.45;76.57;98771.41;221042;1282;22589;-80
2023/02/26 15:24:17;;;;;;;6.10;3.70;;;;;;;0.44;76.44;98776.42;221258;1283;23719;-80
2023/02/26 15:29:29;;;;;;;6.30;3.90;;;;;;;0.42;76.39;98783.30;221197;1261;23957;-80
2023/02/26 15:34:33;;;;;;;6.80;4.20;;;;;;;0.42;76.44;98791.48;221055;1282;23282;-79
2023/02/26 15:39:35;;;;;;;6.70;4.30;;;;;;;0.42;76.58;98796.32;221005;1283;22606;-79
2023/02/26 15:44:37;;;;;;;7.50;4.00;;;;;;;0.40;76.64;98798.35;220977;1280;22575;-78
2023/02/26 15:49:57;;;;;;;7.20;4.80;;;;;;;0.39;76.36;98808.67;221027;1278;23452;-80
2023/02/26 15:55:06;;;;;;;7.00;4.60;;;;;;;0.36;76.44;98810.78;221149;1281;22537;-79
2023/02/26 16:00:24;;;;;;;8.90;4.90;;;;;;;0.35;76.60;98815.58;221057;1279;22580;-80
2023/02/26 16:05:28;;;;;;;11.20;6.20;;;;;;;0.35;76.82;98818.34;221017;1280;22996;-80
2023/02/26 16:10:47;;;;;;;9.70;6.40;;;;;;;0.37;77.05;98826.85;221042;1283;25330;-79
2023/02/26 16:15:51;;;;;;;9.80;6.00;;;;;;;0.38;76.90;98829.75;221180;1275;24363;-79
2023/02/26 16:21:00;;;;;;;11.30;5.70;;;;;;;0.38;77.06;98838.09;220994;1282;22540;-80
2023/02/26 16:26:07;;;;;;;11.30;6.60;;;;;;;0.36;76.95;98850.84;221032;1282;22539;-79
2023/02/26 16:31:47;;;;;;;10.30;7.00;;;;;;;0.34;77.21;98861.52;220872;1281;22539;-78
2023/02/26 16:36:54;;;;;;;10.30;6.10;;;;;;;0.33;77.14;98867.55;221039;1283;22553;-80
2023/02/26 16:42:12;;;;;;;8.20;5.40;;;;;;;0.31;76.63;98873.55;220934;1278;22536;-80
2023/02/26 16:47:17;;;;;;;9.20;5.40;;;;;;;0.29;76.75;98878.79;221031;1278;22529;-79
2023/02/26 16:52:24;;;;;;;11.80;6.60;;;;;;;0.29;77.15;98885.48;221091;1282;24423;-79
2023/02/26 16:57:35;;;;;;;11.40;7.10;;;;;;;0.31;76.87;98893.31;220970;1283;23619;-80
2023/02/26 17:02:38;;;;;;;11.30;7.10;;;;;;;0.31;76.89;98898.47;221010;1281;24236;-79
2023/02/26 17:07:55;;;;;;;11.50;6.70;;;;;;;0.29;77.14;98902.29;221257;1278;23769;-80
2023/02/26 17:13:26;;;;;;;11.50;6.00;;;;;;;0.25;76.97;98904.33;221102;1278;24191;-79
2023/02/26 17:18:30;;;;;;;10.20;6.50;;;;;;;0.20;77.19;98912.90;220986;1281;22552;-77
2023/02/26 17:23:36;;;;;;;13.40;8.10;;;;;;;0.15;77.15;98926.92;221060;1283;22616;-80
2023/02/26 17:28:41;;;;;;;14.40;8.80;;;;;;;0.10;77.52;98938.98;220887;1281;25366;-79
2023/02/26 17:33:44;;;;;;;15.30;9.00;;;;;;;0.10;77.55;98943.29;221055;1278;24383;-81
2023/02/26 17:38:50;;;;;;;13.90;8.20;;;;;;;0.10;77.38;98942.27;221052;1262;23771;-79
2023/02/26 17:43:54;;;;;;;13.70;8.60;;;;;;;0.11;77.71;98942.73;221102;1283;24273;-80
2023/02/26 17:48:56;;;;;;;20.10;11.30;;;;;;;0.11;77.70;98949.09;220830;1283;22543;-79
2023/02/26 17:54:00;;;;;;;21.60;12.30;;;;;;;0.14;77.82;98956.86;221134;1282;25446;-78
2023/02/26 17:59:08;;;;;;;19.80;10.60;;;;;;;0.15;77.58;98965.75;221057;1278;22635;-79
2023/02/26 18:04:12;;;;;;;18.80;10.20;;;;;;;0.22;77.99;98968.64;221004;1283;23005;-79
2023/02/26 18:09:15;;;;;;;31.80;14.90;;;;;;;0.26;77.74;98971.27;221081;1282;23376;-80
2023/02/26 18:14:21;;;;;;;30.30;16.20;;;;;;;0.28;77.48;98973.93;221051;1275;22763;-80
2023/02/26 18:19:23;;;;;;;28.00;15.80;;;;;;;0.28;77.27;98978.29;221009;1279;24253;-79
2023/02/26 18:24:31;;;;;;;24.80;14.60;;;;;;;0.28;77.69;98991.39;221011;1282;22552;-78
2023/02/26 18:29:38;;;;;;;26.40;15.60;;;;;;;0.28;77.80;98996.42;221113;1282;24222;-79
2023/02/26 18:34:50;;;;;;;23.40;14.50;;;;;;;0.28;78.07;99005.09;221030;1277;22602;-79
2023/02/26 18:39:56;;;;;;;24.30;14.70;;;;;;;0.26;77.63;99006.63;221072;1282;22671;-80
2023/02/26 18:44:59;;;;;;;18.00;11.30;;;;;;;0.25;77.79;99009.15;221049;1280;25358;-79
2023/02/26 18:50:02;;;;;;;19.50;11.60;;;;;;;0.26;77.88;99017.91;220987;1280;23783;-79
2023/02/26 18:55:12;;;;;;;17.00;11.10;;;;;;;0.24;77.93;99019.42;220948;1283;22648;-79
2023/02/26 19:00:17;;;;;;;14.70;10.20;;;;;;;0.23;78.35;99026.48;220999;1278;25650;-79
2023/02/26 19:05:23;;;;;;;20.20;12.00;;;;;;;0.21;78.48;99028.36;220866;1283;22665;-80
2023/02/26 19:10:30;;;;;;;18.40;11.30;;;;;;;0.20;78.36;99034.83;221040;1282;22537;-79
2023/02/26 19:15:33;;;;;;;16.10;11.00;;;;;;;0.20;78.48;99041.41;221087;1264;22601;-79
2023/02/26 19:20:36;;;;;;;18.40;11.30;;;;;;;0.19;78.58;99049.57;221188;1277;25141;-79
2023/02/26 19:25:39;;;;;;;18.30;11.40;;;;;;;0.18;78.38;99045.38;221092;1283;22534;-79
2023/02/26 19:30:43;;;;;;;17.10;10.70;;;;;;;0.19;78.47;99048.05;221070;1281;24358;-80
2023/02/26 19:35:47;;;;;;;18.00;11.50;;;;;;;0.18;78.52;99050.34;221158;1280;25552;-79
2023/02/26 19:40:50;;;;;;;19.60;12.70;;;;;;;0.18;78.45;99049.18;220897;1259;22624;-79
2023/02/26 19:45:54;;;;;;;22.10;13.30;;;;;;;0.18;78.24;99055.73;220900;1275;23230;-79
2023/02/26 19:50:58;;;;;;;23.80;13.90;;;;;;;0.19;78.33;99067.08;221063;1283;22679;-78
2023/02/26 19:56:03;;;;;;;24.80;15.50;;;;;;;0.22;78.37;99067.45;220937;1282;22658;-79
2023/02/26 20:01:06;;;;;;;23.50;13.10;;;;;;;0.20;78.57;99076.58;220961;1276;22532;-79
2023/02/26 20:06:11;;;;;;;20.30;12.50;;;;;;;0.17;79.13;99081.27;221046;1280;22569;-79
2023/02/26 20:11:14;;;;;;;19.30;12.30;;;;;;;0.16;79.42;99092.42;221085;1275;22572;-77
2023/02/26 20:16:16;;;;;;;22.60;14.70;;;;;;;0.17;79.67;99090.98;220949;1272;22600;-80
2023/02/26 20:21:20;;;;;;;24.00;14.40;;;;;;;0.17;79.63;99092.20;221088;1275;23619;-79
2023/02/26 20:26:23;;;;;;;20.90;12.70;;;;;;;0.13;79.77;99097.89;220952;1280;23824;-79
2023/02/26 20:31:29;;;;;;;24.60;12.50;;;;;;;0.09;80.20;99101.98;220995;1281;23481;-80
2023/02/26 20:37:38;;;;;;;26.80;15.70;;;;;;;0.07;80.41;99107.14;220868;1283;22575;-81
2023/02/26 20:42:43;;;;;;;27.10;16.70;;;;;;;0.04;80.24;99110.13;220892;1283;22547;-79
2023/02/26 20:47:45;;;;;;;22.60;14.10;;;;;;;0.01;80.62;99110.21;220943;1281;22994;-80
2023/02/26 20:52:50;;;;;;;20.30;12.80;;;;;;;-0.02;80.56;99111.80;221335;1283;22543;-80
2023/02/26 20:57:54;;;;;;;20.30;12.90;;;;;;;-0.04;80.95;99115.77;221045;1283;22546;-79
2023/02/26 21:02:56;;;;;;;23.80;13.50;;;;;;;-0.07;80.74;99118.91;221028;1275;24093;-79
2023/02/26 21:08:03;;;;;;;21.70;13.30;;;;;;;-0.07;80.63;99114.74;221272;1264;22664;-80
2023/02/26 21:13:06;;;;;;;18.50;13.00;;;;;;;-0.07;80.86;99125.67;221232;1279;22720;-81
2023/02/26 21:18:09;;;;;;;16.00;9.90;;;;;;;-0.08;80.93;99127.09;221137;1281;22534;-79
2023/02/26 21:23:12;;;;;;;18.40;10.00;;;;;;;-0.08;80.99;99128.70;221125;1283;22536;-79
2023/02/26 21:28:15;;;;;;;16.90;8.90;;;;;;;-0.09;80.78;99125.79;221104;1278;22508;-78
2023/02/26 21:33:18;;;;;;;12.90;7.70;;;;;;;-0.09;80.71;99134.67;220969;1283;22584;-78
2023/02/26 21:38:21;;;;;;;10.80;6.30;;;;;;;-0.11;80.43;99140.84;221012;1283;22641;-81
2023/02/26 21:43:24;;;;;;;12.10;5.40;;;;;;;-0.13;80.41;99147.10;221002;1281;22608;-79
2023/02/26 21:48:27;;;;;;;12.00;6.00;;;;;;;-0.16;79.91;99153.72;220921;1281;22558;-80
2023/02/26 21:53:29;;;;;;;9.60;5.50;;;;;;;-0.17;80.22;99151.70;220942;1278;22615;-78
2023/02/26 21:58:32;;;;;;;9.20;5.40;;;;;;;-0.17;79.79;99167.48;221116;1279;25372;-79
2023/02/26 22:03:34;;;;;;;11.30;5.50;;;;;;;-0.18;79.60;99161.77;220814;1283;22679;-79
2023/02/26 22:08:37;;;;;;;10.90;5.00;;;;;;;-0.17;79.53;99175.73;220948;1279;22586;-79
2023/02/26 22:13:49;;;;;;;11.20;4.90;;;;;;;-0.16;79.76;99177.79;220969;1283;24739;-79
2023/02/26 22:18:52;;;;;;;9.00;5.40;;;;;;;-0.16;79.54;99183.30;220890;1282;22774;-79
2023/02/26 22:23:54;;;;;;;8.00;4.70;;;;;;;-0.16;79.38;99186.27;220947;1278;22543;-80
2023/02/26 22:28:59;;;;;;;12.10;5.40;;;;;;;-0.17;79.84;99191.17;221017;1283;22540;-79
2023/02/26 22:34:01;;;;;;;12.30;5.60;;;;;;;-0.16;79.29;99190.73;220920;1281;25913;-77
2023/02/26 22:39:04;;;;;;;12.50;5.70;;;;;;;-0.17;79.80;99197.02;220688;1283;22675;-79
2023/02/26 22:44:07;;;;;;;14.70;6.30;;;;;;;-0.18;79.38;99200.77;221030;1283;22558;-79
2023/02/26 22:49:09;;;;;;;11.50;5.10;;;;;;;-0.20;79.31;99206.27;220970;1281;25648;-77
2023/02/26 22:54:12;;;;;;;12.20;5.40;;;;;;;-0.23;79.43;99207.01;220906;1283;22822;-78
2023/02/26 22:59:15;;;;;;;10.70;5.00;;;;;;;-0.26;79.65;99222.80;220934;1265;22547;-79
2023/02/26 23:04:18;;;;;;;11.60;5.30;;;;;;;-0.28;79.17;99219.27;220908;1279;22733;-78
2023/02/26 23:09:23;;;;;;;9.20;4.70;;;;;;;-0.29;79.20;99218.51;221041;1283;25279;-79
2023/02/26 23:14:26;;;;;;;11.60;5.00;;;;;;;-0.31;79.16;99228.36;220805;1283;148825;-78
2023/02/26 23:19:28;;;;;;;8.50;4.60;;;;;;;-0.34;79.23;99232.54;221095;1283;22587;-79
2023/02/26 23:24:31;;;;;;;9.70;5.30;;;;;;;-0.37;78.81;99233.95;221015;1279;24244;-78
2023/02/26 23:29:33;;;;;;;10.80;5.20;;;;;;;-0.41;79.27;99237.70;220870;1277;24204;-79
2023/02/26 23:34:36;;;;;;;13.30;7.40;;;;;;;-0.48;78.82;99246.51;220919;1281;22577;-77
2023/02/26 23:39:38;;;;;;;17.50;8.90;;;;;;;-0.56;78.99;99247.75;220972;1278;24298;-80
2023/02/26 23:44:41;;;;;;;13.60;8.30;;;;;;;-0.65;78.96;99249.10;220896;1278;23229;-78
2023/02/26 23:49:43;;;;;;;13.70;8.20;;;;;;;-0.75;79.24;99255.08;220968;1283;25579;-77
2023/02/26 23:54:45;;;;;;;17.70;11.70;;;;;;;-0.83;78.97;99260.64;220877;1283;22954;-79
2023/02/26 23:59:46;;;;;;;14.50;9.90;;;;;;;-0.90;79.09;99257.19;220913;1281;25532;-77
